createdAt,value
2017-06-27T00:00:48.538Z,14.40
2017-06-27T00:03:16.107Z,14.40
2017-06-27T00:05:43.698Z,14.30
2017-06-27T00:08:12.017Z,14.20
2017-06-27T00:10:39.621Z,14.20
2017-06-27T00:13:07.210Z,14.20
2017-06-27T00:15:34.842Z,14.20
2017-06-27T00:18:02.419Z,14.10
2017-06-27T00:20:30.806Z,14.20
2017-06-27T00:22:59.142Z,14.10
2017-06-27T00:25:26.747Z,14.10
2017-06-27T00:27:55.102Z,14.00
2017-06-27T00:30:22.674Z,14.00
2017-06-27T00:32:51.025Z,14.00
2017-06-27T00:35:18.602Z,14.00
2017-06-27T00:37:46.172Z,14.00
2017-06-27T00:40:14.587Z,13.90
2017-06-27T00:42:42.146Z,13.90
2017-06-27T00:45:09.732Z,13.90
2017-06-27T00:47:37.318Z,13.80
2017-06-27T00:50:04.882Z,13.80
2017-06-27T00:52:32.469Z,13.80
2017-06-27T00:55:00.805Z,13.70
2017-06-27T00:57:28.389Z,13.70
2017-06-27T00:59:55.972Z,13.70
2017-06-27T01:02:24.285Z,13.70
2017-06-27T01:04:51.845Z,13.70
2017-06-27T01:07:19.458Z,13.70
2017-06-27T01:09:47.819Z,13.60
2017-06-27T01:12:15.443Z,13.60
2017-06-27T01:14:43.008Z,13.60
2017-06-27T01:17:10.594Z,13.60
2017-06-27T01:19:38.145Z,13.60
2017-06-27T01:22:05.749Z,13.60
2017-06-27T01:24:34.094Z,13.70
2017-06-27T01:27:01.657Z,13.70
2017-06-27T01:29:29.256Z,13.80
2017-06-27T01:31:57.585Z,13.80
2017-06-27T01:34:25.153Z,13.80
2017-06-27T01:36:52.753Z,13.80
2017-06-27T01:39:20.351Z,13.70
2017-06-27T01:41:47.899Z,13.70
2017-06-27T01:44:15.486Z,13.60
2017-06-27T01:46:43.076Z,13.60
2017-06-27T01:49:10.626Z,13.70
2017-06-27T01:51:38.205Z,13.60
2017-06-27T01:54:05.771Z,13.60
2017-06-27T01:56:34.109Z,13.60
2017-06-27T01:59:01.722Z,13.60
2017-06-27T02:01:30.064Z,13.60
2017-06-27T02:03:57.686Z,13.50
2017-06-27T02:06:25.275Z,13.50
2017-06-27T02:08:52.881Z,13.60
2017-06-27T02:11:21.243Z,13.50
2017-06-27T02:13:48.817Z,13.50
2017-06-27T02:16:16.386Z,13.40
2017-06-27T02:18:44.751Z,13.30
2017-06-27T02:21:12.314Z,13.30
2017-06-27T02:23:39.890Z,13.30
2017-06-27T02:26:08.262Z,13.20
2017-06-27T02:28:36.715Z,13.20
2017-06-27T02:31:04.278Z,13.20
2017-06-27T02:33:31.865Z,13.20
2017-06-27T02:36:00.209Z,13.20
2017-06-27T02:38:27.797Z,13.20
2017-06-27T02:40:56.158Z,13.20
2017-06-27T02:43:23.718Z,13.20
2017-06-27T02:45:51.302Z,13.20
2017-06-27T02:48:19.757Z,13.10
2017-06-27T02:50:47.364Z,13.10
2017-06-27T02:53:14.927Z,13.10
2017-06-27T02:55:42.568Z,13.20
2017-06-27T02:58:10.981Z,13.20
2017-06-27T03:00:38.545Z,13.20
2017-06-27T03:03:06.134Z,13.20
2017-06-27T03:05:33.709Z,13.20
2017-06-27T03:08:01.269Z,13.30
2017-06-27T03:10:34.853Z,13.30
2017-06-27T03:13:02.423Z,13.40
2017-06-27T03:15:29.974Z,13.40
2017-06-27T03:17:57.606Z,13.40
2017-06-27T03:20:25.170Z,13.50
2017-06-27T03:22:52.749Z,13.50
2017-06-27T03:25:20.363Z,13.50
2017-06-27T03:27:48.710Z,13.50
2017-06-27T03:30:16.273Z,13.50
2017-06-27T03:32:43.858Z,13.50
2017-06-27T03:35:12.185Z,13.40
2017-06-27T03:37:39.752Z,13.40
2017-06-27T03:40:07.426Z,13.50
2017-06-27T03:42:35.023Z,13.50
2017-06-27T03:45:03.369Z,13.50
2017-06-27T03:47:30.929Z,13.50
2017-06-27T03:49:58.508Z,13.50
2017-06-27T03:52:26.102Z,13.50
2017-06-27T03:54:53.705Z,13.50
2017-06-27T03:57:21.261Z,13.50
2017-06-27T03:59:48.826Z,13.60
2017-06-27T04:02:16.441Z,13.60
2017-06-27T04:04:44.010Z,13.60
2017-06-27T04:07:12.331Z,13.60
2017-06-27T04:09:39.901Z,13.50
2017-06-27T04:12:07.579Z,13.50
2017-06-27T04:14:35.130Z,13.50
2017-06-27T04:17:02.759Z,13.60
2017-06-27T04:19:30.405Z,13.60
2017-06-27T04:21:57.962Z,13.70
2017-06-27T04:24:25.638Z,13.80
2017-06-27T04:26:53.195Z,13.80
2017-06-27T04:29:21.017Z,13.80
2017-06-27T04:31:49.397Z,13.90
2017-06-27T04:34:17.730Z,13.90
2017-06-27T04:36:45.294Z,13.90
2017-06-27T04:39:12.879Z,14.00
2017-06-27T04:41:40.478Z,14.10
2017-06-27T04:44:08.058Z,14.20
2017-06-27T04:46:35.630Z,14.20
2017-06-27T04:49:03.204Z,14.40
2017-06-27T04:51:30.783Z,14.50
2017-06-27T04:53:58.346Z,14.40
2017-06-27T04:56:25.923Z,14.60
2017-06-27T04:58:53.803Z,14.70
2017-06-27T05:01:22.173Z,14.80
2017-06-27T05:03:49.856Z,14.80
2017-06-27T05:06:17.431Z,14.70
2017-06-27T05:08:44.990Z,14.60
2017-06-27T05:11:12.586Z,14.60
2017-06-27T05:13:40.145Z,14.50
2017-06-27T05:16:07.730Z,14.50
2017-06-27T05:18:35.374Z,14.50
2017-06-27T05:21:02.929Z,14.60
2017-06-27T05:23:30.502Z,14.60
2017-06-27T05:25:58.097Z,14.60
2017-06-27T05:28:26.525Z,14.50
2017-06-27T05:30:54.099Z,14.40
2017-06-27T05:33:21.678Z,14.60
2017-06-27T05:35:49.282Z,14.70
2017-06-27T05:38:16.845Z,14.80
2017-06-27T05:40:44.463Z,14.90
2017-06-27T05:43:12.045Z,14.90
2017-06-27T05:45:40.417Z,14.90
2017-06-27T05:48:07.994Z,14.90
2017-06-27T05:50:35.553Z,15.00
2017-06-27T05:53:03.139Z,15.10
2017-06-27T05:55:30.710Z,15.20
2017-06-27T05:57:58.294Z,15.30
2017-06-27T06:00:25.989Z,15.40
2017-06-27T06:02:54.346Z,15.50
2017-06-27T06:05:21.901Z,15.50
2017-06-27T06:07:49.537Z,15.60
2017-06-27T06:10:17.114Z,15.70
2017-06-27T06:12:44.674Z,15.80
2017-06-27T06:15:12.371Z,16.00
2017-06-27T06:17:39.943Z,16.10
2017-06-27T06:20:08.257Z,16.50
2017-06-27T06:22:35.847Z,16.50
2017-06-27T06:25:03.405Z,16.80
2017-06-27T06:27:30.986Z,16.80
2017-06-27T06:29:58.546Z,16.80
2017-06-27T06:32:26.241Z,16.60
2017-06-27T06:34:53.798Z,16.60
2017-06-27T06:37:21.375Z,16.70
2017-06-27T06:39:48.962Z,16.80
2017-06-27T06:42:16.538Z,16.80
2017-06-27T06:44:44.107Z,16.90
2017-06-27T06:47:11.799Z,17.10
2017-06-27T06:49:39.369Z,17.20
2017-06-27T06:52:06.933Z,17.20
2017-06-27T06:54:34.619Z,17.30
2017-06-27T06:57:02.180Z,17.20
2017-06-27T06:59:29.771Z,17.30
2017-06-27T07:01:57.345Z,17.40
2017-06-27T07:04:24.905Z,17.60
2017-06-27T07:06:52.501Z,17.50
2017-06-27T07:09:20.067Z,17.60
2017-06-27T07:11:47.627Z,17.60
2017-06-27T07:14:15.219Z,17.90
2017-06-27T07:16:42.782Z,18.00
2017-06-27T07:19:10.342Z,18.00
2017-06-27T07:21:37.922Z,18.10
2017-06-27T07:24:05.523Z,18.10
2017-06-27T07:26:33.095Z,18.60
2017-06-27T07:29:00.649Z,18.80
2017-06-27T07:31:28.238Z,19.00
2017-06-27T07:33:55.822Z,19.40
2017-06-27T07:36:23.398Z,19.60
2017-06-27T07:38:51.730Z,19.50
2017-06-27T07:41:19.305Z,19.50
2017-06-27T07:43:46.898Z,19.20
2017-06-27T07:46:15.245Z,19.40
2017-06-27T07:48:42.843Z,19.30
2017-06-27T07:51:10.481Z,19.50
2017-06-27T07:53:38.037Z,19.70
2017-06-27T07:56:05.625Z,19.90
2017-06-27T07:58:33.192Z,20.00
2017-06-27T08:01:01.570Z,19.70
2017-06-27T08:03:29.902Z,19.70
2017-06-27T08:05:57.484Z,19.60
2017-06-27T08:08:25.051Z,19.60
2017-06-27T08:10:52.611Z,19.70
2017-06-27T08:13:20.228Z,19.60
2017-06-27T08:15:47.788Z,19.70
2017-06-27T08:18:15.361Z,19.90
2017-06-27T08:20:42.964Z,20.20
2017-06-27T08:23:10.524Z,20.40
2017-06-27T08:25:38.175Z,20.40
2017-06-27T08:28:05.762Z,20.40
2017-06-27T08:30:33.321Z,20.50
2017-06-27T08:33:00.880Z,20.50
2017-06-27T08:35:29.242Z,20.40
2017-06-27T08:37:56.883Z,20.40
2017-06-27T08:40:24.458Z,20.30
2017-06-27T08:42:52.107Z,20.20
2017-06-27T08:45:19.713Z,20.20
2017-06-27T08:47:47.278Z,20.30
2017-06-27T08:50:14.870Z,20.30
2017-06-27T08:52:42.466Z,20.20
2017-06-27T08:55:10.036Z,20.10
2017-06-27T08:57:37.602Z,20.20
2017-06-27T09:00:05.954Z,20.40
2017-06-27T09:02:33.527Z,20.30
2017-06-27T09:05:01.083Z,20.40
2017-06-27T09:07:28.658Z,20.20
2017-06-27T09:09:56.222Z,20.40
2017-06-27T09:12:23.798Z,20.20
2017-06-27T09:14:51.585Z,20.20
2017-06-27T09:17:19.153Z,20.10
2017-06-27T09:19:46.711Z,19.90
2017-06-27T09:22:14.300Z,19.80
2017-06-27T09:24:41.872Z,20.10
2017-06-27T09:27:09.450Z,20.20
2017-06-27T09:29:37.041Z,20.20
2017-06-27T09:32:04.629Z,20.20
2017-06-27T09:34:32.195Z,20.50
2017-06-27T09:36:59.795Z,20.60
2017-06-27T09:39:27.356Z,20.80
2017-06-27T09:41:54.978Z,20.70
2017-06-27T09:44:22.603Z,20.70
2017-06-27T09:46:50.190Z,20.70
2017-06-27T09:49:17.759Z,20.90
2017-06-27T09:51:45.420Z,21.00
2017-06-27T09:54:13.010Z,21.10
2017-06-27T09:56:40.574Z,21.20
2017-06-27T09:59:08.166Z,21.30
2017-06-27T10:01:35.733Z,21.20
2017-06-27T10:04:03.294Z,21.50
2017-06-27T10:06:30.894Z,21.40
2017-06-27T10:08:58.463Z,21.70
2017-06-27T10:11:26.031Z,21.50
2017-06-27T10:13:53.630Z,21.40
2017-06-27T10:16:21.186Z,21.50
2017-06-27T10:18:48.757Z,21.80
2017-06-27T10:21:16.439Z,21.70
2017-06-27T10:23:44.034Z,21.50
2017-06-27T10:26:11.625Z,21.60
2017-06-27T10:28:39.233Z,22.00
2017-06-27T10:31:06.798Z,21.90
2017-06-27T10:33:34.415Z,22.30
2017-06-27T10:36:01.984Z,22.20
2017-06-27T10:38:29.537Z,22.40
2017-06-27T10:40:57.122Z,22.50
2017-06-27T10:43:24.682Z,22.50
2017-06-27T10:45:52.294Z,22.60
2017-06-27T10:48:19.872Z,23.00
2017-06-27T10:50:48.233Z,23.20
2017-06-27T10:53:15.830Z,23.10
2017-06-27T10:55:43.406Z,23.10
2017-06-27T10:58:11.084Z,22.90
2017-06-27T11:00:38.677Z,22.80
2017-06-27T11:03:06.342Z,22.80
2017-06-27T11:05:33.903Z,22.90
2017-06-27T11:08:01.491Z,22.80
2017-06-27T11:10:29.825Z,22.90
2017-06-27T11:12:57.395Z,22.90
2017-06-27T11:15:24.989Z,22.70
2017-06-27T11:17:52.558Z,22.70
2017-06-27T11:20:20.906Z,22.50
2017-06-27T11:22:48.466Z,22.40
2017-06-27T11:25:16.185Z,22.50
2017-06-27T11:27:43.762Z,22.40
2017-06-27T11:30:11.366Z,22.40
2017-06-27T11:32:38.957Z,22.50
2017-06-27T11:35:06.555Z,22.60
2017-06-27T11:37:34.148Z,22.60
2017-06-27T11:40:01.749Z,22.60
2017-06-27T11:42:29.338Z,22.60
2017-06-27T11:44:56.922Z,22.80
2017-06-27T11:47:24.546Z,23.10
2017-06-27T11:49:52.122Z,23.20
2017-06-27T11:52:19.688Z,23.30
2017-06-27T11:54:47.289Z,23.40
2017-06-27T11:57:15.652Z,23.90
2017-06-27T11:59:43.187Z,23.80
2017-06-27T12:02:10.757Z,24.40
2017-06-27T12:04:41.098Z,24.80
2017-06-27T12:07:14.437Z,24.80
2017-06-27T12:09:42.410Z,24.80
2017-06-27T12:12:10.025Z,24.60
2017-06-27T12:14:37.599Z,24.70
2017-06-27T12:17:05.201Z,24.30
2017-06-27T12:19:32.811Z,24.20
2017-06-27T12:22:00.406Z,24.20
2017-06-27T12:24:28.743Z,24.10
2017-06-27T12:26:57.350Z,23.80
2017-06-27T12:29:24.926Z,23.80
2017-06-27T12:31:52.503Z,23.90
2017-06-27T12:34:20.216Z,24.10
2017-06-27T12:36:48.134Z,24.40
2017-06-27T12:39:15.755Z,24.40
2017-06-27T12:41:43.334Z,24.80
2017-06-27T12:44:11.696Z,24.70
2017-06-27T12:46:39.275Z,24.70
2017-06-27T12:49:07.618Z,24.60
2017-06-27T12:51:35.190Z,24.60
2017-06-27T12:54:02.758Z,24.30
2017-06-27T12:56:30.337Z,24.30
2017-06-27T12:58:58.675Z,23.80
2017-06-27T13:01:26.269Z,23.80
2017-06-27T13:03:54.618Z,22.90
2017-06-27T13:06:22.201Z,22.90
2017-06-27T13:08:49.786Z,22.60
2017-06-27T13:11:17.369Z,22.30
2017-06-27T13:13:44.966Z,22.00
2017-06-27T13:16:12.602Z,21.50
2017-06-27T13:18:40.178Z,21.50
2017-06-27T13:21:07.758Z,21.40
2017-06-27T13:23:35.359Z,21.30
2017-06-27T13:26:02.935Z,21.40
2017-06-27T13:28:30.508Z,21.40
2017-06-27T13:30:58.196Z,21.30
2017-06-27T13:33:25.776Z,21.30
2017-06-27T13:35:53.342Z,21.30
2017-06-27T13:38:21.694Z,21.50
2017-06-27T13:40:49.329Z,21.50
2017-06-27T13:43:16.914Z,21.60
2017-06-27T13:45:44.499Z,21.70
2017-06-27T13:48:12.102Z,21.70
2017-06-27T13:50:39.718Z,21.70
2017-06-27T13:53:07.294Z,21.70
2017-06-27T13:55:34.875Z,21.60
2017-06-27T13:58:02.466Z,21.60
2017-06-27T14:00:30.120Z,21.60
2017-06-27T14:02:57.722Z,21.60
2017-06-27T14:05:25.297Z,21.60
2017-06-27T14:07:53.661Z,21.40
2017-06-27T14:10:21.226Z,21.40
2017-06-27T14:12:48.825Z,21.40
2017-06-27T14:15:16.407Z,21.50
2017-06-27T14:17:44.069Z,21.50
2017-06-27T14:20:11.650Z,21.60
2017-06-27T14:22:39.273Z,21.60
2017-06-27T14:25:07.398Z,21.70
2017-06-27T14:27:34.982Z,21.80
2017-06-27T14:30:03.348Z,22.00
2017-06-27T14:32:30.908Z,21.90
2017-06-27T14:34:58.496Z,22.00
2017-06-27T14:37:26.150Z,22.00
2017-06-27T14:39:54.512Z,22.10
2017-06-27T14:42:22.119Z,22.10
2017-06-27T14:44:49.710Z,22.30
2017-06-27T14:47:17.298Z,22.40
2017-06-27T14:49:44.903Z,22.50
2017-06-27T14:52:12.487Z,22.80
2017-06-27T14:54:40.140Z,22.90
2017-06-27T14:57:07.798Z,22.90
2017-06-27T14:59:35.357Z,22.90
2017-06-27T15:02:02.987Z,22.90
2017-06-27T15:04:30.576Z,22.90
2017-06-27T15:06:59.102Z,23.10
2017-06-27T15:09:26.705Z,23.40
2017-06-27T15:11:54.295Z,23.40
2017-06-27T15:14:21.962Z,23.20
2017-06-27T15:16:49.538Z,23.20
2017-06-27T15:19:17.118Z,23.10
2017-06-27T15:21:44.709Z,23.00
2017-06-27T15:24:12.305Z,23.10
2017-06-27T15:26:39.895Z,23.00
2017-06-27T15:29:07.485Z,22.80
2017-06-27T15:31:35.084Z,22.60
2017-06-27T15:34:02.670Z,22.60
2017-06-27T15:36:30.352Z,22.40
2017-06-27T15:38:57.934Z,22.50
2017-06-27T15:41:25.591Z,22.50
2017-06-27T15:43:53.174Z,22.50
2017-06-27T15:46:20.757Z,22.40
2017-06-27T15:48:48.354Z,22.50
2017-06-27T15:51:16.042Z,22.40
2017-06-27T15:53:44.410Z,22.20
2017-06-27T15:56:12.765Z,22.00
2017-06-27T15:58:40.343Z,22.00
2017-06-27T16:01:07.968Z,21.90
2017-06-27T16:03:35.546Z,21.80
2017-06-27T16:06:03.116Z,21.60
2017-06-27T16:08:30.737Z,21.50
2017-06-27T16:10:58.368Z,21.40
2017-06-27T16:13:25.941Z,21.30
2017-06-27T16:15:53.533Z,21.30
2017-06-27T16:18:21.098Z,21.20
2017-06-27T16:20:48.704Z,21.20
2017-06-27T16:23:16.404Z,21.10
2017-06-27T16:25:43.995Z,21.10
2017-06-27T16:28:11.617Z,21.10
2017-06-27T16:30:39.204Z,21.10
2017-06-27T16:33:06.773Z,21.20
2017-06-27T16:35:34.359Z,21.10
2017-06-27T16:38:01.991Z,21.10
2017-06-27T16:40:29.566Z,21.10
2017-06-27T16:42:57.138Z,21.10
2017-06-27T16:45:24.772Z,21.00
2017-06-27T16:47:52.330Z,21.00
2017-06-27T16:50:19.944Z,21.10
2017-06-27T16:52:48.366Z,21.10
2017-06-27T16:55:15.988Z,21.10
2017-06-27T16:57:44.359Z,21.00
2017-06-27T17:00:11.951Z,21.00
2017-06-27T17:02:39.599Z,21.10
2017-06-27T17:05:12.034Z,20.90
2017-06-27T17:07:39.786Z,20.90
2017-06-27T17:10:07.358Z,20.90
2017-06-27T17:12:34.943Z,20.90
2017-06-27T17:15:02.569Z,20.80
2017-06-27T17:17:30.191Z,20.90
2017-06-27T17:19:57.775Z,20.90
2017-06-27T17:22:25.422Z,20.90
2017-06-27T17:24:53.014Z,20.90
2017-06-27T17:27:20.595Z,20.90
2017-06-27T17:29:48.207Z,21.00
2017-06-27T17:32:15.853Z,21.10
2017-06-27T17:34:43.460Z,21.00
2017-06-27T17:37:11.089Z,21.00
2017-06-27T17:39:39.411Z,21.00
2017-06-27T17:42:07.006Z,21.00
2017-06-27T17:44:35.381Z,21.00
2017-06-27T17:47:02.978Z,20.90
2017-06-27T17:49:30.602Z,20.90
2017-06-27T17:51:58.175Z,20.90
2017-06-27T17:54:26.510Z,20.80
2017-06-27T17:56:54.144Z,20.80
2017-06-27T17:59:21.718Z,20.80
2017-06-27T18:01:49.358Z,20.70
2017-06-27T18:04:16.945Z,20.70
2017-06-27T18:06:44.526Z,20.70
2017-06-27T18:09:12.375Z,20.70
2017-06-27T18:11:39.942Z,20.70
2017-06-27T18:14:07.602Z,20.70
2017-06-27T18:16:35.240Z,20.70
2017-06-27T18:19:02.853Z,20.60
2017-06-27T18:21:30.452Z,20.50
2017-06-27T18:23:58.056Z,20.40
2017-06-27T18:26:25.694Z,20.30
2017-06-27T18:28:53.319Z,20.30
2017-06-27T18:31:21.715Z,20.30
2017-06-27T18:33:49.298Z,20.30
2017-06-27T18:36:16.911Z,20.30
2017-06-27T18:38:44.530Z,20.30
2017-06-27T18:41:12.122Z,20.30
2017-06-27T18:43:39.708Z,20.30
2017-06-27T18:46:07.317Z,20.20
2017-06-27T18:48:34.950Z,20.20
2017-06-27T18:51:07.167Z,20.20
2017-06-27T18:53:34.746Z,20.20
2017-06-27T18:56:02.321Z,20.20
2017-06-27T18:58:30.001Z,20.20
2017-06-27T19:00:58.452Z,20.20
2017-06-27T19:03:26.089Z,20.20
2017-06-27T19:05:56.461Z,20.10
2017-06-27T19:08:24.119Z,20.10
2017-06-27T19:10:52.540Z,20.10
2017-06-27T19:13:20.126Z,20.10
2017-06-27T19:15:47.689Z,20.10
2017-06-27T19:18:15.285Z,20.10
2017-06-27T19:20:43.695Z,20.00
2017-06-27T19:23:11.318Z,20.00
2017-06-27T19:25:38.897Z,20.00
2017-06-27T19:28:06.511Z,20.00
2017-06-27T19:30:34.098Z,20.00
2017-06-27T19:33:02.658Z,20.00
2017-06-27T19:35:30.227Z,19.90
2017-06-27T19:37:57.943Z,19.80
2017-06-27T19:40:25.570Z,19.80
2017-06-27T19:42:53.253Z,19.80
2017-06-27T19:45:21.594Z,19.70
2017-06-27T19:47:49.202Z,19.70
2017-06-27T19:50:16.817Z,19.70
2017-06-27T19:52:44.446Z,19.70
2017-06-27T19:55:12.024Z,19.70
2017-06-27T19:57:39.595Z,19.70
2017-06-27T20:00:07.265Z,19.70
2017-06-27T20:02:34.854Z,19.60
2017-06-27T20:05:02.446Z,19.60
2017-06-27T20:07:30.113Z,19.60
2017-06-27T20:09:57.739Z,19.50
2017-06-27T20:12:25.334Z,19.50
2017-06-27T20:14:52.939Z,19.50
2017-06-27T20:17:21.750Z,19.50
2017-06-27T20:19:49.394Z,19.50
2017-06-27T20:22:17.009Z,19.50
2017-06-27T20:24:44.632Z,19.50
2017-06-27T20:27:12.245Z,19.50
2017-06-27T20:29:39.850Z,19.60
2017-06-27T20:32:07.487Z,19.50
2017-06-27T20:34:35.049Z,19.50
2017-06-27T20:37:02.665Z,19.50
2017-06-27T20:39:31.022Z,19.40
2017-06-27T20:41:58.593Z,19.40
2017-06-27T20:44:26.987Z,19.30
2017-06-27T20:46:55.423Z,19.30
2017-06-27T20:49:22.989Z,19.30
2017-06-27T20:51:50.575Z,19.20
2017-06-27T20:54:18.931Z,19.20
2017-06-27T20:56:46.585Z,19.20
2017-06-27T20:59:14.226Z,19.20
2017-06-27T21:01:41.815Z,19.10
2017-06-27T21:04:09.382Z,19.10
2017-06-27T21:06:36.967Z,19.00
2017-06-27T21:09:05.299Z,18.90
2017-06-27T21:11:32.893Z,18.90
2017-06-27T21:14:01.293Z,18.90
2017-06-27T21:16:29.656Z,18.80
2017-06-27T21:18:58.028Z,18.90
2017-06-27T21:21:25.626Z,18.80
2017-06-27T21:23:53.220Z,18.90
2017-06-27T21:26:20.816Z,18.90
2017-06-27T21:28:48.381Z,18.80
2017-06-27T21:31:16.741Z,18.90
2017-06-27T21:33:44.409Z,18.80
2017-06-27T21:36:11.985Z,18.80
2017-06-27T21:38:40.373Z,18.80
2017-06-27T21:41:08.697Z,18.80
2017-06-27T21:43:36.402Z,18.80
2017-06-27T21:46:04.018Z,18.90
2017-06-27T21:48:31.621Z,18.80
2017-06-27T21:50:59.215Z,18.70
2017-06-27T21:53:26.816Z,18.70
2017-06-27T21:55:54.400Z,18.80
2017-06-27T21:58:21.982Z,18.80
2017-06-27T22:00:50.350Z,18.80
2017-06-27T22:03:18.680Z,18.90
2017-06-27T22:05:46.255Z,18.90
2017-06-27T22:08:13.991Z,18.90
2017-06-27T22:10:41.589Z,18.90
2017-06-27T22:13:09.159Z,18.90
2017-06-27T22:15:36.743Z,18.90
2017-06-27T22:18:05.083Z,18.80
2017-06-27T22:20:32.653Z,18.80
2017-06-27T22:23:00.286Z,18.80
2017-06-27T22:25:27.866Z,18.90
2017-06-27T22:27:55.450Z,18.90
2017-06-27T22:30:23.037Z,18.90
2017-06-27T22:32:51.386Z,18.90
2017-06-27T22:35:18.950Z,18.90
2017-06-27T22:37:46.530Z,18.80
2017-06-27T22:40:14.871Z,18.80
2017-06-27T22:42:42.583Z,18.80
2017-06-27T22:45:10.918Z,18.80
2017-06-27T22:47:38.488Z,18.80
2017-06-27T22:50:06.069Z,18.80
2017-06-27T22:52:34.475Z,18.80
2017-06-27T22:55:02.079Z,18.80
2017-06-27T22:57:29.653Z,18.80
2017-06-27T22:59:57.229Z,18.80
2017-06-27T23:02:25.574Z,18.80
2017-06-27T23:04:53.163Z,18.80
2017-06-27T23:07:20.757Z,18.80
2017-06-27T23:09:49.087Z,18.80
2017-06-27T23:12:16.669Z,18.70
2017-06-27T23:14:45.038Z,18.70
2017-06-27T23:17:12.606Z,18.70
2017-06-27T23:19:40.205Z,18.70
2017-06-27T23:22:07.757Z,18.60
2017-06-27T23:24:35.334Z,18.50
2017-06-27T23:27:02.914Z,18.50
2017-06-27T23:29:30.510Z,18.50
2017-06-27T23:31:58.090Z,18.50
2017-06-27T23:34:26.604Z,18.40
2017-06-27T23:36:54.179Z,18.40
2017-06-27T23:39:21.781Z,18.30
2017-06-27T23:41:50.131Z,18.20
2017-06-27T23:44:17.714Z,18.20
2017-06-27T23:46:45.333Z,18.20
2017-06-27T23:49:12.921Z,18.10
2017-06-27T23:51:40.541Z,18.10
2017-06-27T23:54:08.100Z,18.10
2017-06-27T23:56:35.672Z,18.10
2017-06-27T23:59:03.275Z,18.10
